Terminal Aerodrome Forecast
Issued by NWS Jacksonville, FL

Home | Current Version | Previous Version | Text Only | Print | Product List | Glossary On
Versions: 1 2 3 4 5 6 7 8 9 10 11 12 13 14 15 16 17 18
000
FTUS42 KJAX 290000 AAA
TAFSSI
TAF AMD
KSSI 290057Z 2901/2924 24010KT P6SM VCSH SCT050 BKN250
     FM291000 28008KT P6SM FEW030 SCT250
     FM291400 30009KT P6SM SCT035 SCT250
     FM292200 18010KT P6SM FEW250=

USA.gov is the U.S. government's official web portal to all federal, state and local government web resources and services.